Time;durP1;ratioP1;P1;durP2;ratioP2;P2;SDS_P1;SDS_P2;PMS_P1;PMS_P2;Temp;Humidity;BMP_temperature;BMP_pressure;BME280_temperature;BME280_humidity;BME280_pressure;Samples;Min_cycle;Max_cycle;Signal;HPM_P1;HPM_P2
2021/09/28 00:00:06;;;;;;;0.80;0.70;;;13.80;99.90;;;;;;5021783;28;20305;-76
2021/09/28 00:02:31;;;;;;;0.97;0.70;;;13.80;99.90;;;;;;5026740;28;20196;-76
2021/09/28 00:04:57;;;;;;;0.83;0.70;;;13.80;99.90;;;;;;5018743;28;20815;-76
2021/09/28 00:07:22;;;;;;;0.70;0.60;;;13.80;99.90;;;;;;5016662;28;20180;-76
2021/09/28 00:09:48;;;;;;;0.70;0.50;;;13.80;99.90;;;;;;5016930;28;20184;-77
2021/09/28 00:12:13;;;;;;;1.50;1.37;;;13.90;99.90;;;;;;5020610;28;20624;-77
2021/09/28 00:14:39;;;;;;;0.70;0.50;;;13.90;99.90;;;;;;5027351;28;20191;-77
2021/09/28 00:17:06;;;;;;;0.70;0.50;;;13.90;99.90;;;;;;5033691;28;20193;-77
2021/09/28 00:19:31;;;;;;;0.70;0.50;;;13.90;99.90;;;;;;5028749;28;20974;-77
2021/09/28 00:21:57;;;;;;;0.70;0.50;;;13.90;99.90;;;;;;5025534;28;20454;-77
2021/09/28 00:24:22;;;;;;;0.70;0.50;;;13.80;99.90;;;;;;5024071;28;20617;-77
2021/09/28 00:26:48;;;;;;;0.80;0.73;;;13.80;99.90;;;;;;5030751;28;20533;-77
2021/09/28 00:29:13;;;;;;;0.70;0.60;;;13.80;99.90;;;;;;5017681;28;20180;-77
2021/09/28 00:31:39;;;;;;;1.57;1.33;;;13.80;99.90;;;;;;5029630;28;20579;-77
2021/09/28 00:34:04;;;;;;;0.70;0.67;;;13.80;99.90;;;;;;5028358;28;20638;-76
2021/09/28 00:36:30;;;;;;;0.70;0.50;;;13.70;99.90;;;;;;5022045;28;20959;-76
2021/09/28 00:38:55;;;;;;;0.70;0.50;;;13.70;99.90;;;;;;5016819;28;20215;-76
2021/09/28 00:41:21;;;;;;;0.70;0.50;;;13.70;99.90;;;;;;5018658;28;20184;-76
2021/09/28 00:43:53;;;;;;;0.90;0.70;;;13.70;99.90;;;;;;5025738;28;20179;-76
2021/09/28 00:46:23;;;;;;;0.70;0.50;;;13.60;99.90;;;;;;5026847;28;20202;-77
2021/09/28 00:48:50;;;;;;;0.70;0.50;;;13.60;99.90;;;;;;5033629;28;20437;-77
2021/09/28 00:51:16;;;;;;;0.70;0.50;;;13.60;99.90;;;;;;5016937;28;20435;-77
2021/09/28 00:53:43;;;;;;;0.70;0.50;;;13.60;99.90;;;;;;5023234;28;20441;-77
2021/09/28 00:56:17;;;;;;;0.70;0.50;;;13.60;99.90;;;;;;5025410;28;20517;-77
2021/09/28 00:58:43;;;;;;;0.70;0.50;;;13.50;99.90;;;;;;5032026;28;20462;-76
2021/09/28 01:01:10;;;;;;;1.33;0.87;;;13.50;99.90;;;;;;5031876;28;20426;-76
2021/09/28 01:03:35;;;;;;;0.90;0.70;;;13.50;99.90;;;;;;5026532;28;20454;-77
2021/09/28 01:06:01;;;;;;;0.70;0.50;;;13.50;99.90;;;;;;5031969;28;20423;-76
2021/09/28 01:08:27;;;;;;;0.70;0.50;;;13.50;99.90;;;;;;5031674;28;20233;-76
2021/09/28 01:10:54;;;;;;;0.70;0.50;;;13.40;99.90;;;;;;5024554;28;20510;-78
2021/09/28 01:13:21;;;;;;;1.33;0.90;;;13.40;99.90;;;;;;5029174;28;20454;-78
2021/09/28 01:16:08;;;;;;;0.87;0.73;;;13.30;99.90;;;;;;5019149;28;20419;-77
2021/09/28 01:18:36;;;;;;;0.70;0.50;;;13.30;99.90;;;;;;5025312;28;20462;-77
2021/09/28 01:21:04;;;;;;;0.70;0.60;;;13.30;99.90;;;;;;5032998;28;20433;-77
2021/09/28 01:23:29;;;;;;;0.70;0.50;;;13.20;99.90;;;;;;5028222;28;20454;-77
2021/09/28 01:25:55;;;;;;;0.70;0.50;;;13.20;99.90;;;;;;5024669;28;20511;-77
2021/09/28 01:28:21;;;;;;;1.10;1.00;;;13.20;99.90;;;;;;5035045;28;20649;-77
2021/09/28 01:30:46;;;;;;;0.70;0.50;;;13.10;99.90;;;;;;5030317;28;20179;-76
2021/09/28 01:33:15;;;;;;;0.70;0.60;;;13.10;99.90;;;;;;5020571;28;20558;-76
2021/09/28 01:35:41;;;;;;;0.70;0.60;;;13.10;99.90;;;;;;5031337;28;20695;-77
2021/09/28 01:38:07;;;;;;;2.30;1.60;;;13.10;99.90;;;;;;5023514;28;20431;-77
2021/09/28 01:40:33;;;;;;;0.70;0.50;;;13.10;99.90;;;;;;5014049;28;20415;-76
2021/09/28 01:43:14;;;;;;;1.93;0.77;;;13.00;99.90;;;;;;5020789;28;20203;-76
2021/09/28 01:45:41;;;;;;;0.70;0.50;;;13.00;99.90;;;;;;5019823;28;20861;-76
2021/09/28 01:48:06;;;;;;;0.70;0.60;;;13.00;99.90;;;;;;5021384;28;20427;-76
2021/09/28 01:50:33;;;;;;;1.00;0.80;;;13.00;99.90;;;;;;5019313;28;20423;-76
2021/09/28 01:52:58;;;;;;;2.83;2.73;;;13.00;99.90;;;;;;5024583;28;20678;-77
2021/09/28 01:55:24;;;;;;;0.80;0.60;;;13.00;99.90;;;;;;5024096;28;20554;-78
2021/09/28 01:57:55;;;;;;;0.80;0.70;;;13.00;99.90;;;;;;5020462;28;20267;-78
2021/09/28 02:00:22;;;;;;;1.40;1.07;;;12.90;99.90;;;;;;5015847;28;20199;-78
2021/09/28 02:02:47;;;;;;;1.23;1.13;;;12.90;99.90;;;;;;5020393;28;20446;-78
2021/09/28 02:05:13;;;;;;;3.17;2.97;;;12.90;99.90;;;;;;5043798;28;20782;-78
2021/09/28 02:07:38;;;;;;;0.70;0.50;;;12.90;99.90;;;;;;5029576;28;20253;-78
2021/09/28 02:10:05;;;;;;;0.70;0.50;;;12.90;99.90;;;;;;5034568;28;20207;-78
2021/09/28 02:12:31;;;;;;;0.70;0.60;;;12.90;99.90;;;;;;5035300;28;20207;-78
2021/09/28 02:14:56;;;;;;;3.13;1.30;;;12.80;99.90;;;;;;5033343;28;20485;-78
2021/09/28 02:17:22;;;;;;;0.73;0.63;;;12.80;99.90;;;;;;5021205;28;20176;-78
2021/09/28 02:19:47;;;;;;;1.00;0.90;;;12.80;99.90;;;;;;5015740;28;20203;-78
2021/09/28 02:22:13;;;;;;;2.50;0.70;;;12.80;99.90;;;;;;5035049;28;20676;-78
2021/09/28 02:24:38;;;;;;;0.70;0.60;;;12.80;99.90;;;;;;5018675;28;20187;-78
2021/09/28 02:27:04;;;;;;;0.70;0.60;;;12.80;99.90;;;;;;5032338;28;20550;-78
2021/09/28 02:29:30;;;;;;;0.80;0.70;;;12.80;99.90;;;;;;5030826;28;20176;-78
2021/09/28 02:31:55;;;;;;;1.43;0.67;;;12.80;99.90;;;;;;5035025;28;20453;-78
2021/09/28 02:34:21;;;;;;;1.20;0.63;;;12.80;99.90;;;;;;5033551;28;20682;-78
2021/09/28 02:36:46;;;;;;;2.10;0.80;;;12.80;99.90;;;;;;5025191;28;20669;-77
2021/09/28 02:39:12;;;;;;;0.70;0.50;;;12.80;99.90;;;;;;5024783;28;20258;-78
2021/09/28 02:41:38;;;;;;;1.63;1.37;;;12.80;99.90;;;;;;5025712;28;20683;-78
2021/09/28 02:44:05;;;;;;;3.37;2.53;;;12.80;99.90;;;;;;5029480;28;20186;-78
2021/09/28 02:46:32;;;;;;;1.50;0.93;;;12.80;99.90;;;;;;5034018;28;20171;-78
2021/09/28 02:48:58;;;;;;;0.70;0.50;;;12.80;99.90;;;;;;5032507;28;20438;-78
2021/09/28 02:51:24;;;;;;;0.70;0.70;;;12.80;99.90;;;;;;5022373;28;20431;-78
2021/09/28 02:53:49;;;;;;;0.70;0.60;;;12.80;99.90;;;;;;5029520;28;20438;-78
2021/09/28 02:56:15;;;;;;;1.57;1.47;;;12.80;99.90;;;;;;5026835;28;20186;-78
2021/09/28 02:58:40;;;;;;;0.80;0.73;;;12.80;99.90;;;;;;5022321;28;20199;-77
2021/09/28 03:01:06;;;;;;;1.10;1.00;;;12.80;99.90;;;;;;5032968;28;20255;-78
2021/09/28 03:03:31;;;;;;;0.70;0.50;;;12.70;99.90;;;;;;5033545;28;20203;-78
2021/09/28 03:05:57;;;;;;;0.80;0.70;;;12.70;99.90;;;;;;5022647;28;20180;-76
2021/09/28 03:08:22;;;;;;;1.73;0.70;;;12.70;99.90;;;;;;5034176;28;20171;-77
2021/09/28 03:10:48;;;;;;;0.90;0.70;;;12.70;99.90;;;;;;5026763;28;20198;-77
2021/09/28 03:13:14;;;;;;;0.70;0.50;;;12.70;99.90;;;;;;5022490;28;20207;-78
2021/09/28 03:15:40;;;;;;;1.07;0.80;;;12.70;99.90;;;;;;5031971;28;20218;-76
2021/09/28 03:18:06;;;;;;;0.70;0.50;;;12.70;99.90;;;;;;5026459;28;20183;-78
2021/09/28 03:20:32;;;;;;;0.80;0.60;;;12.70;99.90;;;;;;5034379;28;20410;-78
2021/09/28 03:22:57;;;;;;;0.70;0.50;;;12.70;99.90;;;;;;5030186;28;21006;-77
2021/09/28 03:25:23;;;;;;;0.70;0.70;;;12.70;99.90;;;;;;5016355;28;20415;-77
2021/09/28 03:27:49;;;;;;;4.00;0.70;;;12.70;99.90;;;;;;5014860;28;20571;-78
2021/09/28 03:30:15;;;;;;;0.70;0.50;;;12.60;99.90;;;;;;5025612;28;20175;-78
2021/09/28 03:32:41;;;;;;;0.70;0.60;;;12.60;99.90;;;;;;5034308;28;20191;-78
2021/09/28 03:35:09;;;;;;;0.70;0.50;;;12.50;99.90;;;;;;5025679;28;20456;-78
2021/09/28 03:37:40;;;;;;;1.00;0.90;;;12.50;99.90;;;;;;5031624;28;20427;-78
2021/09/28 03:40:08;;;;;;;0.70;0.50;;;12.40;99.90;;;;;;5028766;28;20453;-77
2021/09/28 03:42:34;;;;;;;1.00;0.80;;;12.40;99.90;;;;;;5028690;28;20452;-77
2021/09/28 03:44:59;;;;;;;1.53;0.70;;;12.40;99.90;;;;;;5036366;28;20505;-77
2021/09/28 03:47:25;;;;;;;0.70;0.50;;;12.30;99.90;;;;;;5023193;28;20982;-78
2021/09/28 03:49:50;;;;;;;0.77;0.67;;;12.30;99.90;;;;;;5018983;28;20184;-78
2021/09/28 03:52:16;;;;;;;1.00;0.70;;;12.30;99.90;;;;;;5018746;28;20249;-78
2021/09/28 03:54:41;;;;;;;0.70;0.50;;;12.30;99.90;;;;;;5024828;28;20183;-77
2021/09/28 03:57:07;;;;;;;2.70;0.80;;;12.30;99.90;;;;;;5035150;28;20194;-78
2021/09/28 03:59:32;;;;;;;0.80;0.70;;;12.30;99.90;;;;;;5032660;28;20196;-78
2021/09/28 04:01:58;;;;;;;1.07;1.00;;;12.30;99.90;;;;;;5018563;28;20327;-77
2021/09/28 04:04:24;;;;;;;1.20;0.87;;;12.30;99.90;;;;;;5033029;28;20310;-78
2021/09/28 04:06:49;;;;;;;0.80;0.73;;;12.20;99.90;;;;;;5024119;28;20207;-78
2021/09/28 04:09:15;;;;;;;0.70;0.60;;;12.20;99.90;;;;;;5021155;28;20176;-77
2021/09/28 04:11:40;;;;;;;0.70;0.50;;;12.20;99.90;;;;;;5036788;28;20199;-78
2021/09/28 04:14:09;;;;;;;0.70;0.50;;;12.10;99.90;;;;;;5020293;28;20215;-78
2021/09/28 04:16:36;;;;;;;2.87;2.77;;;12.20;99.90;;;;;;5033715;28;20183;-77
2021/09/28 04:19:03;;;;;;;0.70;0.50;;;12.10;99.90;;;;;;5016781;28;20493;-78
2021/09/28 04:21:29;;;;;;;1.43;1.33;;;12.10;99.90;;;;;;5017392;28;20419;-77
2021/09/28 04:23:55;;;;;;;0.70;0.50;;;12.10;99.90;;;;;;5029815;28;20799;-77
2021/09/28 04:26:20;;;;;;;0.70;0.60;;;12.10;99.90;;;;;;5016388;28;20427;-78
2021/09/28 04:28:47;;;;;;;0.70;0.50;;;12.10;99.90;;;;;;5017303;28;20433;-77
2021/09/28 04:31:15;;;;;;;1.10;0.70;;;12.10;99.90;;;;;;5018618;28;20203;-78
2021/09/28 04:33:42;;;;;;;0.70;0.50;;;12.10;99.90;;;;;;5029084;28;20452;-77
2021/09/28 04:36:07;;;;;;;0.70;0.50;;;12.10;99.90;;;;;;5032545;28;20501;-78
2021/09/28 04:38:33;;;;;;;0.70;0.50;;;12.10;99.90;;;;;;5029095;28;20616;-77
2021/09/28 04:41:00;;;;;;;0.70;0.50;;;12.10;99.90;;;;;;5027301;28;20186;-78
2021/09/28 04:43:25;;;;;;;0.70;0.60;;;12.10;99.90;;;;;;5034464;28;20229;-77
2021/09/28 04:45:51;;;;;;;0.70;0.50;;;12.10;99.90;;;;;;5019442;28;20493;-77
2021/09/28 04:48:17;;;;;;;1.20;1.10;;;12.00;99.90;;;;;;5022931;28;20187;-78
2021/09/28 04:50:42;;;;;;;0.70;0.50;;;12.00;99.90;;;;;;5017651;28;20178;-77
2021/09/28 04:53:08;;;;;;;0.73;0.57;;;12.00;99.90;;;;;;5032390;28;20199;-77
2021/09/28 04:55:33;;;;;;;0.70;0.50;;;12.00;99.90;;;;;;5031895;28;20233;-77
2021/09/28 04:57:59;;;;;;;0.70;0.60;;;12.00;99.90;;;;;;5035560;28;20240;-78
2021/09/28 05:00:24;;;;;;;1.20;1.10;;;12.00;99.90;;;;;;5034571;28;20531;-77
2021/09/28 05:02:50;;;;;;;1.93;1.83;;;12.00;99.90;;;;;;5019932;28;20199;-78
2021/09/28 05:05:16;;;;;;;0.70;0.50;;;12.00;99.90;;;;;;5025146;28;20180;-77
2021/09/28 05:07:41;;;;;;;0.80;0.60;;;12.00;99.90;;;;;;5035065;28;20175;-77
2021/09/28 05:10:07;;;;;;;0.70;0.50;;;12.00;99.90;;;;;;5036289;28;20183;-78
2021/09/28 05:12:33;;;;;;;0.70;0.50;;;12.00;99.90;;;;;;5035541;28;20365;-78
2021/09/28 05:14:58;;;;;;;0.70;0.50;;;11.90;99.90;;;;;;5020150;28;20176;-78
2021/09/28 05:17:24;;;;;;;0.80;0.70;;;12.00;99.90;;;;;;5024516;28;20645;-77
2021/09/28 05:19:50;;;;;;;0.70;0.50;;;11.90;99.90;;;;;;5022872;28;20311;-77
2021/09/28 05:22:16;;;;;;;0.70;0.50;;;11.90;99.90;;;;;;5021082;28;20978;-78
2021/09/28 05:24:41;;;;;;;0.70;0.50;;;11.90;99.90;;;;;;5019367;28;20173;-78
2021/09/28 05:27:07;;;;;;;0.70;0.50;;;11.90;99.90;;;;;;5025206;28;20201;-77
2021/09/28 05:29:34;;;;;;;2.70;1.57;;;11.90;99.90;;;;;;5034512;28;20180;-77
2021/09/28 05:32:00;;;;;;;0.70;0.50;;;11.80;99.90;;;;;;5033947;28;20246;-78
2021/09/28 05:34:25;;;;;;;0.70;0.60;;;11.80;99.90;;;;;;5022675;28;20415;-78
2021/09/28 05:36:52;;;;;;;12.83;0.87;;;11.80;99.90;;;;;;5024008;28;20187;-77
2021/09/28 05:39:18;;;;;;;0.70;0.50;;;11.70;99.90;;;;;;5021210;28;20208;-78
2021/09/28 05:41:43;;;;;;;0.70;0.50;;;11.70;99.90;;;;;;5030137;28;20449;-78
2021/09/28 05:44:09;;;;;;;0.70;0.50;;;11.70;99.90;;;;;;5015763;28;20419;-77
2021/09/28 05:46:35;;;;;;;0.70;0.50;;;11.70;99.90;;;;;;5025879;28;20186;-78
2021/09/28 05:49:00;;;;;;;0.77;0.70;;;11.70;99.90;;;;;;5023959;28;20294;-78
2021/09/28 05:51:28;;;;;;;0.80;0.70;;;11.60;99.90;;;;;;5030119;28;20178;-78
2021/09/28 05:53:57;;;;;;;0.70;0.50;;;11.70;99.90;;;;;;5033038;28;20171;-77
2021/09/28 05:56:23;;;;;;;0.70;0.50;;;11.70;99.90;;;;;;5023274;28;20793;-77
2021/09/28 05:58:48;;;;;;;0.70;0.50;;;11.70;99.90;;;;;;5033768;28;20468;-78
2021/09/28 06:01:14;;;;;;;0.80;0.60;;;11.70;99.90;;;;;;5019133;28;20537;-78
2021/09/28 06:03:39;;;;;;;0.70;0.50;;;11.80;99.90;;;;;;5016701;28;20188;-77
2021/09/28 06:06:05;;;;;;;0.80;0.67;;;11.80;99.90;;;;;;5024909;28;20184;-77
2021/09/28 06:08:31;;;;;;;0.70;0.50;;;11.80;99.90;;;;;;5020317;28;20249;-78
2021/09/28 06:10:57;;;;;;;0.70;0.50;;;11.70;99.90;;;;;;5015884;28;20581;-77
2021/09/28 06:13:23;;;;;;;0.70;0.50;;;11.70;99.90;;;;;;5028842;28;20447;-78
2021/09/28 06:15:48;;;;;;;0.80;0.70;;;11.70;99.90;;;;;;5033637;28;20180;-77
2021/09/28 06:18:14;;;;;;;0.70;0.50;;;11.70;99.90;;;;;;5028276;28;20184;-78
2021/09/28 06:20:40;;;;;;;0.70;0.50;;;11.70;99.90;;;;;;5015268;28;20180;-77
2021/09/28 06:23:05;;;;;;;0.70;0.50;;;11.80;99.90;;;;;;5023978;28;20214;-77
2021/09/28 06:25:31;;;;;;;0.70;0.50;;;11.80;99.90;;;;;;5033488;28;20206;-78
2021/09/28 06:27:56;;;;;;;0.70;0.50;;;11.90;99.90;;;;;;5026894;28;20311;-77
2021/09/28 06:30:22;;;;;;;0.70;0.50;;;12.00;99.90;;;;;;5016882;28;20183;-77
2021/09/28 06:32:47;;;;;;;0.70;0.50;;;12.10;99.90;;;;;;5029554;28;20206;-77
2021/09/28 06:35:13;;;;;;;0.70;0.50;;;12.10;99.90;;;;;;5022440;28;20207;-78
2021/09/28 06:37:38;;;;;;;0.70;0.50;;;12.20;99.90;;;;;;5027860;28;20188;-78
2021/09/28 06:40:05;;;;;;;0.70;0.50;;;12.30;99.90;;;;;;5023143;28;20669;-77
2021/09/28 06:42:30;;;;;;;2.77;2.57;;;12.40;99.90;;;;;;5027759;28;20191;-77
2021/09/28 06:44:56;;;;;;;0.70;0.50;;;12.50;99.90;;;;;;5022828;28;20962;-78
2021/09/28 06:47:21;;;;;;;0.70;0.60;;;12.50;99.90;;;;;;5025792;28;20759;-78
2021/09/28 06:49:47;;;;;;;0.70;0.50;;;12.70;99.90;;;;;;5016774;28;20180;-77
2021/09/28 06:52:12;;;;;;;0.70;0.50;;;12.70;99.90;;;;;;5032679;28;20212;-77
2021/09/28 06:54:38;;;;;;;0.70;0.50;;;12.80;99.90;;;;;;5033317;28;20258;-78
2021/09/28 06:57:04;;;;;;;0.70;0.50;;;12.80;99.90;;;;;;5020723;28;20892;-78
2021/09/28 06:59:30;;;;;;;0.70;0.50;;;12.90;99.90;;;;;;5032975;28;20241;-78
2021/09/28 07:01:55;;;;;;;0.70;0.50;;;12.90;99.90;;;;;;5031631;28;20517;-78
2021/09/28 07:04:21;;;;;;;0.70;0.50;;;13.00;99.90;;;;;;5032289;28;20176;-78
2021/09/28 07:06:46;;;;;;;0.70;0.60;;;13.10;99.90;;;;;;5031052;28;20179;-77
2021/09/28 07:09:12;;;;;;;0.70;0.50;;;13.20;99.90;;;;;;5015275;28;20239;-78
2021/09/28 07:11:38;;;;;;;0.70;0.50;;;13.30;99.90;;;;;;5019845;28;20179;-78
2021/09/28 07:14:03;;;;;;;0.70;0.50;;;13.40;99.90;;;;;;5022976;28;20230;-77
2021/09/28 07:16:29;;;;;;;0.70;0.60;;;13.60;99.90;;;;;;5028104;28;20222;-77
2021/09/28 07:18:54;;;;;;;0.70;0.50;;;13.70;99.90;;;;;;5022109;28;20234;-78
2021/09/28 07:21:20;;;;;;;0.70;0.50;;;13.80;99.90;;;;;;5029682;28;20173;-78
2021/09/28 07:23:46;;;;;;;0.70;0.50;;;13.90;99.90;;;;;;5019655;28;20176;-78
2021/09/28 07:26:11;;;;;;;0.70;0.50;;;14.00;99.90;;;;;;5026642;28;20234;-77
2021/09/28 07:28:38;;;;;;;0.70;0.50;;;14.10;99.90;;;;;;5032934;28;20180;-77
2021/09/28 07:31:05;;;;;;;0.70;0.50;;;14.20;99.90;;;;;;5031183;28;20188;-77
2021/09/28 07:33:30;;;;;;;0.70;0.50;;;14.40;99.90;;;;;;5028720;28;20818;-78
2021/09/28 07:35:56;;;;;;;0.70;0.50;;;14.60;99.90;;;;;;5031433;28;20430;-78
2021/09/28 07:38:22;;;;;;;0.70;0.50;;;14.60;99.90;;;;;;5032411;28;20234;-78
2021/09/28 07:40:49;;;;;;;0.70;0.50;;;14.70;99.90;;;;;;5019208;28;20207;-77
2021/09/28 07:43:15;;;;;;;2.40;0.80;;;14.80;99.90;;;;;;5024412;28;20187;-77
2021/09/28 07:45:41;;;;;;;0.70;0.50;;;14.90;99.90;;;;;;5021443;28;20460;-77
2021/09/28 07:48:07;;;;;;;0.70;0.50;;;15.10;99.90;;;;;;5034501;28;20424;-78
2021/09/28 07:50:33;;;;;;;0.70;0.50;;;15.10;99.90;;;;;;5034656;28;20509;-78
2021/09/28 07:52:58;;;;;;;5.70;1.00;;;15.30;99.90;;;;;;5026655;28;20449;-78
2021/09/28 07:55:26;;;;;;;0.70;0.50;;;15.50;99.90;;;;;;5024871;28;20184;-78
2021/09/28 07:57:52;;;;;;;0.70;0.50;;;15.70;99.90;;;;;;5028134;28;20183;-78
2021/09/28 08:00:18;;;;;;;0.70;0.50;;;15.90;99.90;;;;;;5025496;28;20455;-77
2021/09/28 08:02:43;;;;;;;0.70;0.50;;;16.00;99.90;;;;;;5027561;28;20211;-78
2021/09/28 08:05:10;;;;;;;0.70;0.50;;;16.30;99.90;;;;;;5023932;28;20179;-78
2021/09/28 08:07:38;;;;;;;0.70;0.50;;;16.60;99.90;;;;;;5025269;28;20182;-79
2021/09/28 08:10:05;;;;;;;0.70;0.60;;;16.80;99.90;;;;;;5023535;28;20434;-77
2021/09/28 08:12:30;;;;;;;0.80;0.60;;;17.10;99.90;;;;;;5036543;28;20456;-80
2021/09/28 08:14:56;;;;;;;0.70;0.50;;;17.40;99.90;;;;;;5022709;28;20784;-79
2021/09/28 08:17:23;;;;;;;1.43;1.07;;;17.80;99.90;;;;;;5028403;28;20184;-79
2021/09/28 08:19:49;;;;;;;1.03;0.60;;;18.20;99.90;;;;;;5021384;28;20196;-79
2021/09/28 08:22:16;;;;;;;3.17;0.87;;;18.60;99.90;;;;;;5028091;28;20502;-77
2021/09/28 08:24:43;;;;;;;0.70;0.50;;;18.90;99.90;;;;;;5028653;28;20454;-77
2021/09/28 08:29:55;;;;;;;3.47;1.70;;;19.60;99.90;;;;;;5027155;28;20788;-77
2021/09/28 08:32:21;;;;;;;0.70;0.50;;;20.10;99.90;;;;;;5021205;28;20467;-77
2021/09/28 08:34:46;;;;;;;1.13;1.03;;;20.40;99.90;;;;;;5024987;28;20203;-77
2021/09/28 08:37:13;;;;;;;0.80;0.60;;;20.90;99.90;;;;;;5042178;28;20418;-78
2021/09/28 08:39:40;;;;;;;0.90;0.67;;;21.50;99.90;;;;;;5026092;28;20228;-77
2021/09/28 08:42:05;;;;;;;0.80;0.80;;;22.10;99.90;;;;;;5045977;28;21973;-78
2021/09/28 08:44:31;;;;;;;0.80;0.60;;;22.50;99.90;;;;;;5032288;28;20454;-76
2021/09/28 08:46:57;;;;;;;0.80;0.70;;;22.80;99.90;;;;;;5026081;28;20176;-78
2021/09/28 08:49:22;;;;;;;0.80;0.50;;;23.10;99.90;;;;;;5031919;28;20187;-78
2021/09/28 08:51:50;;;;;;;0.80;0.50;;;23.30;99.90;;;;;;5018899;28;20279;-78
2021/09/28 08:54:17;;;;;;;0.80;0.50;;;23.50;99.90;;;;;;5027090;28;20742;-78
2021/09/28 08:56:43;;;;;;;0.90;0.80;;;23.60;99.90;;;;;;5017259;28;20498;-79
2021/09/28 08:59:10;;;;;;;0.80;0.50;;;23.80;99.90;;;;;;5024935;28;21002;-78
2021/09/28 09:01:37;;;;;;;1.00;0.60;;;23.90;99.90;;;;;;5029573;28;20922;-78
2021/09/28 09:04:17;;;;;;;0.80;0.60;;;24.10;99.90;;;;;;5016582;28;20422;-78
2021/09/28 09:06:44;;;;;;;0.80;0.50;;;24.20;99.90;;;;;;5024057;28;20502;-78
2021/09/28 09:09:13;;;;;;;0.80;0.50;;;24.20;99.90;;;;;;5025485;28;20867;-78
2021/09/28 09:11:41;;;;;;;1.40;1.10;;;24.40;99.90;;;;;;5028544;28;21170;-78
2021/09/28 09:14:19;;;;;;;1.43;1.33;;;24.40;99.90;;;;;;5014221;28;20907;-78
2021/09/28 09:16:47;;;;;;;0.80;0.50;;;24.70;99.90;;;;;;5018509;28;20436;-78
2021/09/28 09:19:18;;;;;;;0.80;0.50;;;24.90;99.90;;;;;;5024219;28;20458;-78
2021/09/28 09:21:53;;;;;;;3.67;0.70;;;24.90;99.90;;;;;;5023289;28;20469;-78
2021/09/28 09:24:49;;;;;;;3.47;1.83;;;24.90;99.90;;;;;;5025431;28;20508;-78
2021/09/28 09:27:29;;;;;;;1.10;0.70;;;25.00;98.30;;;;;;5030797;28;20422;-79
2021/09/28 09:30:13;;;;;;;0.80;0.50;;;24.80;99.90;;;;;;5032621;28;20923;-77
2021/09/28 09:32:49;;;;;;;0.80;0.60;;;24.80;99.90;;;;;;5017182;28;20478;-78
2021/09/28 09:35:31;;;;;;;0.80;0.50;;;24.70;97.40;;;;;;5028793;28;20426;-78
2021/09/28 09:38:12;;;;;;;0.80;0.50;;;24.80;99.50;;;;;;5016134;28;20442;-77
2021/09/28 09:40:43;;;;;;;0.80;0.60;;;24.80;96.60;;;;;;5016445;28;20777;-77
2021/09/28 09:43:10;;;;;;;3.63;1.60;;;24.60;99.90;;;;;;5016464;28;21017;-77
2021/09/28 09:45:36;;;;;;;0.80;0.57;;;24.60;99.90;;;;;;5040046;28;20470;-78
2021/09/28 09:48:24;;;;;;;1.60;1.50;;;24.70;99.90;;;;;;5026872;28;20975;-77
2021/09/28 09:51:08;;;;;;;0.80;0.50;;;24.70;99.90;;;;;;5031355;28;20187;-77
2021/09/28 09:53:55;;;;;;;1.20;0.70;;;24.40;99.90;;;;;;5034048;28;20508;-78
2021/09/28 09:56:21;;;;;;;0.80;0.60;;;24.30;99.90;;;;;;5023098;28;20533;-77
2021/09/28 09:58:47;;;;;;;0.80;0.50;;;24.30;99.90;;;;;;5015406;28;21026;-76
2021/09/28 10:01:13;;;;;;;1.27;0.97;;;23.90;99.90;;;;;;5021972;28;20430;-76
2021/09/28 10:03:40;;;;;;;0.90;0.70;;;23.80;99.90;;;;;;5021269;28;20434;-76
2021/09/28 10:06:06;;;;;;;1.33;1.23;;;23.70;99.90;;;;;;5025872;28;20525;-77
2021/09/28 10:08:33;;;;;;;2.40;1.37;;;23.60;99.90;;;;;;5034999;28;20426;-77
2021/09/28 10:11:00;;;;;;;0.80;0.60;;;23.40;99.90;;;;;;5034311;28;20422;-77
2021/09/28 10:13:44;;;;;;;0.80;0.60;;;23.40;99.90;;;;;;5025842;28;20482;-76
2021/09/28 10:16:44;;;;;;;0.90;0.60;;;23.20;99.90;;;;;;5017581;28;20454;-76
2021/09/28 10:19:36;;;;;;;1.47;1.20;;;23.10;99.90;;;;;;5018291;28;20501;-76
2021/09/28 10:22:03;;;;;;;0.70;0.53;;;22.80;99.90;;;;;;5015077;28;20896;-77
2021/09/28 10:24:34;;;;;;;1.50;1.40;;;22.80;99.90;;;;;;5012825;28;20510;-76
2021/09/28 10:26:59;;;;;;;0.87;0.67;;;23.00;99.90;;;;;;5012609;28;20433;-76
2021/09/28 10:29:38;;;;;;;1.10;0.90;;;23.20;99.90;;;;;;5017628;28;20501;-76
2021/09/28 10:32:25;;;;;;;1.90;0.90;;;23.20;99.90;;;;;;5016436;28;20200;-75
2021/09/28 10:35:09;;;;;;;0.87;0.70;;;23.10;99.90;;;;;;5020913;28;20505;-76
2021/09/28 10:37:50;;;;;;;0.90;0.60;;;23.00;99.90;;;;;;5035013;28;20859;-77
2021/09/28 10:40:17;;;;;;;1.00;0.90;;;22.90;99.90;;;;;;5032510;28;20454;-78
2021/09/28 10:43:01;;;;;;;1.57;1.23;;;22.70;99.90;;;;;;5024299;28;20446;-78
2021/09/28 10:45:29;;;;;;;1.10;0.70;;;22.80;99.90;;;;;;5021395;28;20525;-77
2021/09/28 10:47:56;;;;;;;1.30;1.20;;;22.90;99.90;;;;;;5016293;28;20412;-78
2021/09/28 10:50:36;;;;;;;0.80;0.60;;;23.00;99.90;;;;;;5019305;28;20432;-77
2021/09/28 10:53:09;;;;;;;0.80;0.50;;;23.30;99.90;;;;;;5023250;28;20469;-78
2021/09/28 10:55:53;;;;;;;0.80;0.77;;;23.30;99.90;;;;;;5019055;28;20490;-75
2021/09/28 10:58:19;;;;;;;1.57;1.47;;;23.40;99.90;;;;;;5029193;28;20442;-78
2021/09/28 11:00:48;;;;;;;0.80;0.63;;;23.60;99.90;;;;;;5018602;28;20439;-78
2021/09/28 11:03:14;;;;;;;0.80;0.50;;;23.80;99.90;;;;;;5015466;28;20514;-76
2021/09/28 11:06:00;;;;;;;1.30;0.70;;;23.90;99.90;;;;;;5010877;28;20420;-77
2021/09/28 11:08:26;;;;;;;0.80;0.60;;;23.70;99.90;;;;;;5014586;28;20419;-76
2021/09/28 11:11:00;;;;;;;0.80;0.63;;;23.80;99.90;;;;;;5012306;28;20423;-77
2021/09/28 11:13:37;;;;;;;0.80;0.60;;;23.90;99.90;;;;;;5016913;28;20442;-77
2021/09/28 11:16:06;;;;;;;0.80;0.50;;;23.90;99.90;;;;;;5012691;28;20997;-77
2021/09/28 11:18:32;;;;;;;0.80;0.60;;;24.10;99.90;;;;;;5012637;28;20415;-77
2021/09/28 11:21:12;;;;;;;0.80;0.50;;;24.10;96.50;;;;;;5021121;28;20430;-76
2021/09/28 11:23:39;;;;;;;3.17;1.27;;;24.10;96.50;;;;;;5030191;28;20258;-77
2021/09/28 11:26:05;;;;;;;0.80;0.57;;;24.00;99.90;;;;;;5029965;28;20426;-77
2021/09/28 11:28:31;;;;;;;0.80;0.60;;;24.00;96.80;;;;;;5021833;28;20462;-77
2021/09/28 11:30:58;;;;;;;0.80;0.60;;;24.00;99.90;;;;;;5012643;28;20430;-77
2021/09/28 11:33:25;;;;;;;0.80;0.60;;;24.10;99.90;;;;;;5031582;28;20495;-77
2021/09/28 11:36:11;;;;;;;1.13;1.00;;;24.20;99.90;;;;;;5014226;28;20455;-77
2021/09/28 11:38:40;;;;;;;0.90;0.80;;;24.10;99.90;;;;;;5012165;28;20826;-77
2021/09/28 11:41:14;;;;;;;0.80;0.63;;;24.10;99.90;;;;;;5019589;28;20449;-76
2021/09/28 11:43:42;;;;;;;1.00;0.63;;;24.10;99.90;;;;;;5020898;28;20949;-76
2021/09/28 11:46:16;;;;;;;0.77;0.60;;;24.10;99.90;;;;;;5037457;28;20482;-77
2021/09/28 11:48:48;;;;;;;0.80;0.60;;;24.30;99.90;;;;;;5015248;28;20421;-76
2021/09/28 11:51:25;;;;;;;1.10;1.00;;;24.40;99.90;;;;;;5012896;28;20419;-75
2021/09/28 11:53:59;;;;;;;2.30;1.27;;;24.40;98.60;;;;;;5034577;28;20509;-76
2021/09/28 11:56:33;;;;;;;0.80;0.50;;;23.80;96.20;;;;;;5016495;28;20422;-76
2021/09/28 11:58:59;;;;;;;0.90;0.60;;;23.70;99.40;;;;;;5021225;28;20493;-75
2021/09/28 12:01:26;;;;;;;0.80;0.50;;;23.80;98.80;;;;;;5034985;28;20853;-75
2021/09/28 12:09:34;;;;;;;0.80;0.60;;;24.70;99.90;;;;;;5025852;28;20946;-77
2021/09/28 12:12:09;;;;;;;0.80;0.60;;;25.20;96.50;;;;;;5027463;28;20517;-77
2021/09/28 12:14:52;;;;;;;0.80;0.60;;;25.80;96.20;;;;;;5036837;28;20499;-77
2021/09/28 12:17:20;;;;;;;2.10;1.20;;;25.90;83.60;;;;;;5038064;28;20761;-77
2021/09/28 12:19:48;;;;;;;3.23;1.37;;;26.10;78.80;;;;;;5023202;28;20447;-79
2021/09/28 12:22:26;;;;;;;0.80;0.60;;;26.30;74.50;;;;;;5026180;28;20773;-76
2021/09/28 12:24:54;;;;;;;0.80;0.50;;;26.30;67.80;;;;;;5033467;28;20441;-78
2021/09/28 12:27:22;;;;;;;0.80;0.60;;;26.30;69.40;;;;;;5032740;28;20410;-76
2021/09/28 12:29:50;;;;;;;1.67;1.57;;;26.50;73.90;;;;;;5034129;28;20421;-75
2021/09/28 12:32:27;;;;;;;1.33;0.70;;;26.80;74.30;;;;;;5014991;28;20940;-75
2021/09/28 12:35:02;;;;;;;0.80;0.50;;;26.50;66.00;;;;;;5017113;28;20498;-76
2021/09/28 12:37:29;;;;;;;0.80;0.60;;;26.10;62.30;;;;;;5013899;28;20859;-78
2021/09/28 12:40:12;;;;;;;0.80;0.50;;;26.00;64.80;;;;;;5016495;28;20489;-77
2021/09/28 12:42:39;;;;;;;0.80;0.50;;;25.60;64.50;;;;;;5029899;28;20429;-78
2021/09/28 12:45:07;;;;;;;1.00;0.80;;;25.50;65.00;;;;;;5029425;28;20426;-78
2021/09/28 12:47:40;;;;;;;0.80;0.60;;;25.40;68.00;;;;;;5014779;28;20502;-78
2021/09/28 12:50:22;;;;;;;0.80;0.50;;;25.30;66.50;;;;;;5018087;28;20949;-78
2021/09/28 12:52:50;;;;;;;1.53;0.70;;;25.10;64.10;;;;;;5033479;28;20445;-78
2021/09/28 12:55:16;;;;;;;1.77;1.37;;;24.80;65.80;;;;;;5015135;28;20426;-77
2021/09/28 12:57:42;;;;;;;0.73;0.50;;;24.70;69.00;;;;;;5018368;28;20938;-78
2021/09/28 13:00:08;;;;;;;0.90;0.80;;;24.50;68.40;;;;;;5013132;28;20447;-77